Terminal Aerodrome Forecast
Issued by NWS

Home | Current Version | Previous Version | Text Only | Print | Product List | Glossary On
Versions: 1 2 3 4 5 6 7 8 9 10 11 12 13 14 15 16 17 18 19 20 21 22 23 24 25 26 27 28 29 30 31 32 33 34
000
FTUS45 KGJT 130520
TAFDRO
TAF
KDRO 130520Z 1306/1406 03005KT P6SM SCT100 OVC150
     FM131200 VRB03KT P6SM SCT100 BKN140
     FM131900 26007KT P6SM SCT090 BKN150
     FM132200 36008KT P6SM VCTS SCT080CB BKN110
     FM140400 03004KT P6SM FEW080 SCT110 BKN150=

USA.gov is the U.S. government's official web portal to all federal, state and local government web resources and services.